Time;durP1;ratioP1;P1;durP2;ratioP2;P2;SDS_P1;SDS_P2;PMS_P1;PMS_P2;Temp;Humidity;BMP_temperature;BMP_pressure;BME280_temperature;BME280_humidity;BME280_pressure;Samples;Min_cycle;Max_cycle;Signal;HPM_P1;HPM_P2
2023/03/01 00:01:33;;;;;;;17.83;15.85;;;-1.30;99.90;;;;;;5082223;28;20118;-65
2023/03/01 00:04:00;;;;;;;18.40;15.75;;;-1.30;99.90;;;;;;5083519;28;20040;-66
2023/03/01 00:06:26;;;;;;;20.02;16.20;;;-1.30;99.90;;;;;;5067390;28;20079;-65
2023/03/01 00:08:52;;;;;;;22.10;16.13;;;-1.30;99.90;;;;;;5077480;28;20048;-66
2023/03/01 00:11:24;;;;;;;21.75;16.58;;;-1.30;99.90;;;;;;5085810;28;20036;-64
2023/03/01 00:13:52;;;;;;;22.27;18.20;;;-1.40;99.90;;;;;;5077854;28;20051;-65
2023/03/01 00:16:21;;;;;;;21.13;17.40;;;-1.40;99.90;;;;;;5080935;28;20046;-65
2023/03/01 00:18:47;;;;;;;20.65;17.08;;;-1.40;99.90;;;;;;5078560;28;20393;-64
2023/03/01 00:21:13;;;;;;;17.67;15.80;;;-1.40;99.90;;;;;;5062029;28;20052;-64
2023/03/01 00:23:39;;;;;;;20.70;16.73;;;-1.40;99.90;;;;;;5085156;28;20059;-64
2023/03/01 00:26:08;;;;;;;19.65;16.10;;;-1.50;99.90;;;;;;5080474;28;20047;-65
2023/03/01 00:28:34;;;;;;;21.60;17.35;;;-1.50;99.90;;;;;;5079460;28;20434;-64
2023/03/01 00:31:08;;;;;;;20.33;16.10;;;-1.50;99.90;;;;;;5086501;28;20135;-65
2023/03/01 00:33:33;;;;;;;21.83;15.70;;;-1.50;99.90;;;;;;5083433;28;20040;-64
2023/03/01 00:36:00;;;;;;;18.13;16.13;;;-1.50;99.90;;;;;;5082809;28;20048;-64
2023/03/01 00:38:26;;;;;;;21.52;15.95;;;-1.60;99.90;;;;;;5065498;28;20114;-64
2023/03/01 00:40:52;;;;;;;17.25;15.35;;;-1.60;99.90;;;;;;5062755;28;20036;-65
2023/03/01 00:43:18;;;;;;;20.98;15.88;;;-1.60;99.90;;;;;;5083286;28;20547;-64
2023/03/01 00:45:44;;;;;;;17.65;15.13;;;-1.70;99.90;;;;;;5082140;28;20044;-64
2023/03/01 00:48:10;;;;;;;19.05;15.18;;;-1.70;99.90;;;;;;5081160;28;20092;-65
2023/03/01 00:50:36;;;;;;;17.30;14.43;;;-1.70;99.90;;;;;;5079219;28;20653;-64
2023/03/01 00:53:02;;;;;;;19.65;15.13;;;-1.70;99.90;;;;;;5081611;28;20552;-64
2023/03/01 00:55:27;;;;;;;16.63;14.55;;;-1.80;99.90;;;;;;5087149;28;20126;-64
2023/03/01 00:57:53;;;;;;;18.63;16.33;;;-1.80;99.90;;;;;;5081467;28;20028;-64
2023/03/01 01:00:19;;;;;;;19.27;15.75;;;-1.80;99.90;;;;;;5082722;28;20404;-64
2023/03/01 01:02:45;;;;;;;19.98;15.50;;;-1.80;99.90;;;;;;5082769;28;20028;-64
2023/03/01 01:05:12;;;;;;;19.15;15.80;;;-1.80;99.90;;;;;;5067564;28;20036;-64
2023/03/01 01:07:38;;;;;;;18.92;15.93;;;-1.80;99.90;;;;;;5083463;28;20235;-64
2023/03/01 01:10:04;;;;;;;22.52;17.30;;;-1.70;99.90;;;;;;5082125;28;20047;-64
2023/03/01 01:12:29;;;;;;;20.77;15.95;;;-1.70;99.90;;;;;;5081794;28;20128;-65
2023/03/01 01:14:55;;;;;;;18.35;16.23;;;-1.70;99.90;;;;;;5065306;28;20040;-64
2023/03/01 01:17:21;;;;;;;26.48;18.30;;;-1.70;99.90;;;;;;5083933;28;20067;-64
2023/03/01 01:19:46;;;;;;;24.40;17.60;;;-1.60;99.90;;;;;;5082351;28;20062;-64
2023/03/01 01:22:12;;;;;;;36.65;19.95;;;-1.60;99.90;;;;;;5061611;28;20076;-64
2023/03/01 01:24:38;;;;;;;62.35;21.13;;;-1.60;99.90;;;;;;5060450;28;20424;-64
2023/03/01 01:27:03;;;;;;;100.03;26.40;;;-1.60;99.90;;;;;;5082318;28;20123;-65
2023/03/01 01:29:29;;;;;;;92.20;26.38;;;-1.50;99.90;;;;;;5082924;28;20052;-65
2023/03/01 01:31:55;;;;;;;43.22;22.83;;;-1.50;99.90;;;;;;5087681;28;20044;-65
2023/03/01 01:34:21;;;;;;;42.00;21.55;;;-1.50;99.90;;;;;;5076053;28;20507;-65
2023/03/01 01:36:49;;;;;;;50.40;23.27;;;-1.50;99.90;;;;;;5085241;28;20388;-65
2023/03/01 01:39:15;;;;;;;59.55;23.63;;;-1.50;99.90;;;;;;5066858;28;20412;-65
2023/03/01 01:41:42;;;;;;;49.10;24.08;;;-1.60;99.90;;;;;;5081166;28;20044;-64
2023/03/01 01:44:10;;;;;;;143.38;31.42;;;-1.60;99.90;;;;;;5079739;28;20032;-64
2023/03/01 01:46:46;;;;;;;39.92;23.95;;;-1.60;99.90;;;;;;5086657;28;20073;-64
2023/03/01 01:49:33;;;;;;;42.13;23.40;;;-1.60;99.90;;;;;;5068072;28;20052;-64
2023/03/01 01:52:21;;;;;;;40.65;22.83;;;-1.60;99.90;;;;;;5081615;28;20085;-64
2023/03/01 01:54:59;;;;;;;47.60;23.98;;;-1.70;99.90;;;;;;5069398;28;20036;-64
2023/03/01 01:57:34;;;;;;;47.10;23.92;;;-1.60;99.90;;;;;;5067985;28;20045;-65
2023/03/01 02:00:02;;;;;;;;;;;-1.70;99.90;;;;;;5084634;28;20129;-65
2023/03/01 02:02:28;;;;;;;36.75;21.73;;;-1.70;99.90;;;;;;5083265;28;19926;-65
2023/03/01 02:05:10;;;;;;;32.50;22.88;;;-1.80;99.90;;;;;;5065023;28;20408;-65
2023/03/01 02:07:38;;;;;;;34.88;22.30;;;-1.80;99.90;;;;;;5068965;28;20044;-65
2023/03/01 02:10:04;;;;;;;34.08;24.67;;;-1.80;99.90;;;;;;5084030;28;20161;-65
2023/03/01 02:12:31;;;;;;;39.97;23.35;;;-1.80;99.90;;;;;;5062060;28;20044;-66
2023/03/01 02:14:56;;;;;;;35.08;22.45;;;-1.80;99.90;;;;;;5083064;28;20097;-66
2023/03/01 02:17:22;;;;;;;33.40;22.60;;;-1.90;99.90;;;;;;5084734;28;20344;-66
2023/03/01 02:20:08;;;;;;;28.08;21.90;;;-1.90;99.90;;;;;;5065055;28;20047;-66
2023/03/01 02:22:37;;;;;;;26.65;21.75;;;-1.90;99.90;;;;;;5067387;28;20048;-66
2023/03/01 02:25:09;;;;;;;32.03;22.88;;;-2.00;99.90;;;;;;5076831;28;20115;-66
2023/03/01 02:27:58;;;;;;;30.50;23.30;;;-2.00;99.90;;;;;;5084099;28;20041;-66
2023/03/01 02:30:25;;;;;;;27.75;21.80;;;-2.00;99.90;;;;;;5079689;28;20090;-66
2023/03/01 02:32:52;;;;;;;28.80;22.85;;;-2.10;99.90;;;;;;5087551;28;20089;-65
2023/03/01 02:35:19;;;;;;;27.95;22.30;;;-2.20;99.90;;;;;;5085688;28;20044;-64
2023/03/01 02:37:45;;;;;;;103.45;22.55;;;-2.10;99.90;;;;;;5082024;28;20033;-65
2023/03/01 02:40:17;;;;;;;38.42;20.30;;;-2.10;99.90;;;;;;5065771;28;20054;-65
2023/03/01 02:42:56;;;;;;;77.20;22.48;;;-2.20;99.90;;;;;;5082021;28;20032;-66
2023/03/01 02:45:22;;;;;;;50.17;20.65;;;-2.20;99.90;;;;;;5083797;28;20037;-65
2023/03/01 02:47:49;;;;;;;39.88;21.38;;;-2.30;99.90;;;;;;5086597;28;20043;-66
2023/03/01 02:50:36;;;;;;;48.20;21.60;;;-2.30;99.90;;;;;;5086788;28;20441;-65
2023/03/01 02:53:15;;;;;;;28.52;20.15;;;-2.30;99.90;;;;;;5065239;28;20040;-66
2023/03/01 02:55:41;;;;;;;26.10;19.77;;;-2.30;99.90;;;;;;5065123;28;20114;-66
2023/03/01 02:58:08;;;;;;;23.88;19.67;;;-2.40;99.90;;;;;;5085194;28;20532;-66
2023/03/01 03:00:39;;;;;;;21.42;19.13;;;-2.40;99.90;;;;;;5064541;28;20122;-66
2023/03/01 03:03:06;;;;;;;20.83;17.92;;;-2.40;99.90;;;;;;5085995;28;20036;-66
2023/03/01 03:05:33;;;;;;;22.15;18.60;;;-2.40;99.90;;;;;;5082715;28;20048;-66
2023/03/01 03:08:01;;;;;;;20.35;18.13;;;-2.50;99.90;;;;;;5081759;28;20086;-66
2023/03/01 03:10:30;;;;;;;19.75;17.05;;;-2.50;99.90;;;;;;5082100;28;20040;-66
2023/03/01 03:13:02;;;;;;;19.02;17.02;;;-2.50;99.90;;;;;;5070561;28;20044;-65
2023/03/01 03:15:28;;;;;;;18.60;16.58;;;-2.60;99.90;;;;;;5068675;28;20142;-66
2023/03/01 03:17:55;;;;;;;18.15;16.17;;;-2.60;99.90;;;;;;5081176;28;20058;-66
2023/03/01 03:20:25;;;;;;;17.40;15.52;;;-2.60;99.90;;;;;;5069570;28;20412;-66
2023/03/01 03:22:53;;;;;;;17.77;15.88;;;-2.70;99.90;;;;;;5084678;28;20037;-66
2023/03/01 03:25:20;;;;;;;17.02;15.30;;;-2.70;99.90;;;;;;5064953;28;20055;-66
2023/03/01 03:27:48;;;;;;;18.17;16.30;;;-2.80;99.90;;;;;;5082320;28;20030;-66
2023/03/01 03:30:19;;;;;;;17.70;15.88;;;-2.80;99.90;;;;;;5072553;28;20505;-65
2023/03/01 03:32:53;;;;;;;18.73;16.83;;;-2.80;99.90;;;;;;5083274;28;20116;-65
2023/03/01 03:35:24;;;;;;;19.80;16.90;;;-2.80;99.90;;;;;;5081050;28;20493;-66
2023/03/01 03:38:03;;;;;;;18.67;16.67;;;-2.80;99.90;;;;;;5079315;28;20037;-66
2023/03/01 03:41:00;;;;;;;20.63;17.58;;;-2.80;99.90;;;;;;5070522;28;20067;-65
2023/03/01 03:43:26;;;;;;;18.92;16.92;;;-2.90;99.90;;;;;;5071623;28;20047;-66
2023/03/01 03:45:52;;;;;;;18.45;16.55;;;-2.90;99.90;;;;;;5079895;28;20048;-65
2023/03/01 03:48:18;;;;;;;19.90;17.80;;;-2.90;99.90;;;;;;5062612;28;20412;-65
2023/03/01 03:50:50;;;;;;;18.08;16.13;;;-2.90;99.90;;;;;;5083244;28;20040;-66
2023/03/01 03:53:15;;;;;;;18.67;16.38;;;-3.00;99.90;;;;;;5066558;28;20044;-65
2023/03/01 03:55:41;;;;;;;20.50;18.25;;;-3.00;99.90;;;;;;5087431;28;20537;-66
2023/03/01 03:58:09;;;;;;;18.40;16.15;;;-3.00;99.90;;;;;;5062774;28;20124;-66
2023/03/01 04:00:38;;;;;;;17.73;15.57;;;-3.00;99.90;;;;;;5061877;28;20466;-66
2023/03/01 04:03:04;;;;;;;18.27;16.30;;;-3.00;99.90;;;;;;5086488;28;20044;-65
2023/03/01 04:05:30;;;;;;;19.00;17.00;;;-3.10;99.90;;;;;;5077622;28;20502;-65
2023/03/01 04:08:02;;;;;;;18.17;16.15;;;-3.10;99.90;;;;;;5068344;28;20437;-66
2023/03/01 04:10:30;;;;;;;17.67;15.77;;;-3.10;99.90;;;;;;5066946;28;20035;-65
2023/03/01 04:12:56;;;;;;;17.95;16.02;;;-3.10;99.90;;;;;;5068068;28;20381;-65
2023/03/01 04:15:23;;;;;;;17.83;15.93;;;-3.10;99.90;;;;;;5080375;28;20040;-66
2023/03/01 04:17:52;;;;;;;17.85;15.93;;;-3.10;99.90;;;;;;5079369;28;20043;-66
2023/03/01 04:20:24;;;;;;;17.13;15.27;;;-3.10;99.90;;;;;;5064903;28;20043;-65
2023/03/01 04:22:52;;;;;;;18.58;16.58;;;-3.10;99.90;;;;;;5082150;28;20047;-65
2023/03/01 04:25:18;;;;;;;17.55;15.43;;;-3.20;99.90;;;;;;5082385;28;20036;-64
2023/03/01 04:27:44;;;;;;;18.20;15.77;;;-3.10;99.90;;;;;;5067379;28;20381;-64
2023/03/01 04:30:10;;;;;;;18.38;16.05;;;-3.20;99.90;;;;;;5080743;28;20032;-64
2023/03/01 04:32:36;;;;;;;17.63;15.82;;;-3.20;99.90;;;;;;5080703;28;20047;-64
2023/03/01 04:35:06;;;;;;;18.83;16.92;;;-3.20;99.90;;;;;;5075486;28;20512;-64
2023/03/01 04:37:41;;;;;;;18.67;16.67;;;-3.20;99.90;;;;;;5081452;28;20047;-64
2023/03/01 04:40:15;;;;;;;;;;;-3.20;99.90;;;;;;5080951;28;20032;-64
2023/03/01 04:42:42;;;;;;;18.40;16.13;;;-3.20;99.90;;;;;;5066612;28;19989;-64
2023/03/01 04:45:12;;;;;;;18.65;16.27;;;-3.20;99.90;;;;;;5076317;28;20527;-64
2023/03/01 04:47:40;;;;;;;19.52;16.10;;;-3.20;99.90;;;;;;5083639;28;20425;-64
2023/03/01 04:50:07;;;;;;;18.08;16.25;;;-3.30;99.90;;;;;;5080411;28;20444;-64
2023/03/01 04:52:33;;;;;;;17.52;15.57;;;-3.30;99.90;;;;;;5079503;28;20051;-64
2023/03/01 04:54:59;;;;;;;18.15;15.98;;;-3.30;99.90;;;;;;5075648;28;20032;-64
2023/03/01 04:57:25;;;;;;;17.95;16.05;;;-3.30;99.90;;;;;;5080699;28;20505;-63
2023/03/01 04:59:50;;;;;;;17.33;15.52;;;-3.30;99.90;;;;;;5081692;28;20048;-64
2023/03/01 05:02:16;;;;;;;18.55;15.48;;;-3.30;99.90;;;;;;5083212;28;20032;-64
2023/03/01 05:04:42;;;;;;;18.23;16.08;;;-3.40;99.90;;;;;;5078402;28;20063;-64
2023/03/01 05:07:08;;;;;;;17.27;15.18;;;-3.40;99.90;;;;;;5080710;28;20036;-63
2023/03/01 05:09:33;;;;;;;17.55;15.05;;;-3.40;99.90;;;;;;5084347;28;20047;-64
2023/03/01 05:11:59;;;;;;;16.85;15.02;;;-3.40;99.90;;;;;;5078241;28;20063;-64
2023/03/01 05:14:25;;;;;;;18.27;16.38;;;-3.40;99.90;;;;;;5086743;28;20028;-63
2023/03/01 05:16:50;;;;;;;18.65;15.68;;;-3.40;99.90;;;;;;5068206;28;20032;-64
2023/03/01 05:19:22;;;;;;;18.80;16.83;;;-3.40;99.90;;;;;;5063566;28;20056;-63
2023/03/01 05:22:03;;;;;;;18.50;16.40;;;-3.50;99.90;;;;;;5079006;28;20077;-63
2023/03/01 05:24:31;;;;;;;18.20;16.15;;;-3.40;99.90;;;;;;5069250;28;20544;-64
2023/03/01 05:26:57;;;;;;;18.35;15.55;;;-3.40;99.90;;;;;;5084083;28;20039;-64
2023/03/01 05:29:25;;;;;;;17.95;15.38;;;-3.40;99.90;;;;;;5080482;28;20039;-64
2023/03/01 05:31:56;;;;;;;17.50;15.70;;;-3.40;99.90;;;;;;5069768;28;20115;-63
2023/03/01 05:34:26;;;;;;;20.85;16.58;;;-3.40;99.90;;;;;;5079050;28;20049;-64
2023/03/01 05:36:53;;;;;;;17.38;14.55;;;-3.40;99.90;;;;;;5065035;28;20047;-63
2023/03/01 05:39:23;;;;;;;18.13;16.00;;;-3.30;99.90;;;;;;5085698;28;20072;-63
2023/03/01 05:41:53;;;;;;;18.75;16.50;;;-3.50;99.90;;;;;;5080580;28;20395;-63
2023/03/01 05:44:19;;;;;;;17.77;15.73;;;-3.50;99.90;;;;;;5083160;28;20056;-63
2023/03/01 05:46:44;;;;;;;16.73;15.02;;;-3.50;99.90;;;;;;5081097;28;20448;-63
2023/03/01 05:49:13;;;;;;;17.80;15.50;;;-3.50;99.90;;;;;;5084245;28;20056;-64
2023/03/01 05:51:42;;;;;;;17.35;15.27;;;-3.50;99.90;;;;;;5066265;28;20101;-63
2023/03/01 05:54:09;;;;;;;16.80;15.00;;;-3.50;99.90;;;;;;5061237;28;20063;-63
2023/03/01 05:56:36;;;;;;;15.88;14.18;;;-3.60;99.90;;;;;;5052349;28;20051;-63
2023/03/01 05:59:03;;;;;;;17.58;15.60;;;-3.60;99.90;;;;;;5063923;28;20036;-64
2023/03/01 06:01:29;;;;;;;16.98;15.10;;;-3.60;99.90;;;;;;5063833;28;20068;-64
2023/03/01 06:03:56;;;;;;;17.63;15.00;;;-3.60;99.90;;;;;;5063713;28;20076;-63
2023/03/01 06:06:22;;;;;;;16.65;14.82;;;-3.60;99.90;;;;;;5060474;28;20143;-64
2023/03/01 06:08:48;;;;;;;17.98;15.85;;;-3.60;99.90;;;;;;5063087;28;20392;-63
2023/03/01 06:11:14;;;;;;;17.98;15.38;;;-3.60;99.90;;;;;;5059638;28;20475;-63
2023/03/01 06:13:44;;;;;;;16.77;14.80;;;-3.60;99.90;;;;;;5060969;28;20127;-63
2023/03/01 06:16:10;;;;;;;16.83;14.95;;;-3.70;99.90;;;;;;5070118;28;20098;-64
2023/03/01 06:18:37;;;;;;;17.85;15.38;;;-3.70;99.90;;;;;;5065510;28;20508;-64
2023/03/01 06:21:03;;;;;;;17.10;14.93;;;-3.60;99.90;;;;;;5049030;28;20619;-64
2023/03/01 06:23:29;;;;;;;16.30;13.95;;;-3.70;99.90;;;;;;5059439;28;20214;-63
2023/03/01 06:25:55;;;;;;;18.15;14.57;;;-3.60;99.90;;;;;;5063428;28;20119;-63
2023/03/01 06:28:21;;;;;;;17.88;15.98;;;-3.70;99.90;;;;;;5060016;28;20120;-64
2023/03/01 06:30:47;;;;;;;17.38;15.35;;;-3.70;99.90;;;;;;5051716;28;20131;-64
2023/03/01 06:33:13;;;;;;;16.50;14.68;;;-3.80;99.90;;;;;;5066143;28;20040;-64
2023/03/01 06:35:39;;;;;;;17.63;15.10;;;-3.80;99.90;;;;;;5067207;28;20032;-64
2023/03/01 06:38:05;;;;;;;18.05;15.38;;;-3.70;99.90;;;;;;5063843;28;20025;-64
2023/03/01 06:40:32;;;;;;;18.08;15.52;;;-3.70;99.90;;;;;;5062443;28;20044;-63
2023/03/01 06:42:58;;;;;;;21.75;17.58;;;-3.80;99.90;;;;;;5064910;28;20041;-64
2023/03/01 06:45:24;;;;;;;19.30;16.25;;;-3.70;99.90;;;;;;5063577;28;20037;-63
2023/03/01 06:47:50;;;;;;;16.85;13.98;;;-3.70;99.90;;;;;;5058864;28;20155;-64
2023/03/01 06:50:17;;;;;;;18.73;16.73;;;-3.70;99.90;;;;;;5060657;28;20057;-64
2023/03/01 06:52:44;;;;;;;17.60;15.43;;;-3.60;99.90;;;;;;5071454;28;20120;-64
2023/03/01 06:55:12;;;;;;;18.52;15.98;;;-3.60;99.90;;;;;;5052578;28;20040;-64
2023/03/01 06:57:38;;;;;;;21.45;17.90;;;-3.50;99.90;;;;;;5057593;28;20036;-64
2023/03/01 07:00:05;;;;;;;23.00;18.13;;;-3.50;99.90;;;;;;5073598;28;20384;-65
2023/03/01 07:02:31;;;;;;;22.42;18.30;;;-3.40;99.90;;;;;;5067510;28;20053;-63
2023/03/01 07:04:57;;;;;;;28.13;18.95;;;-3.30;99.90;;;;;;5074950;28;20182;-64
2023/03/01 07:07:23;;;;;;;24.88;19.33;;;-3.20;99.90;;;;;;5074954;28;20586;-64
2023/03/01 07:09:49;;;;;;;25.27;20.17;;;-3.10;99.90;;;;;;5076286;28;20449;-64
2023/03/01 07:12:15;;;;;;;26.98;20.65;;;-3.00;99.90;;;;;;5074499;28;20059;-64
2023/03/01 07:14:43;;;;;;;25.00;19.88;;;-2.90;99.90;;;;;;5073814;28;20388;-64
2023/03/01 07:17:09;;;;;;;27.13;20.48;;;-2.80;99.90;;;;;;5053472;28;20479;-64
2023/03/01 07:19:34;;;;;;;29.35;21.55;;;-2.70;99.90;;;;;;5053992;28;20036;-64
2023/03/01 07:22:00;;;;;;;31.05;22.23;;;-2.60;99.90;;;;;;5069459;28;20044;-63
2023/03/01 07:24:26;;;;;;;31.38;22.33;;;-2.40;99.90;;;;;;5075084;28;20033;-64
2023/03/01 07:26:53;;;;;;;32.67;23.95;;;-2.30;99.90;;;;;;5072881;28;20076;-65
2023/03/01 07:29:19;;;;;;;29.85;23.65;;;-2.10;99.90;;;;;;5053051;28;20071;-64
2023/03/01 07:31:45;;;;;;;37.85;25.10;;;-1.90;99.90;;;;;;5077032;28;20071;-64
2023/03/01 07:34:11;;;;;;;35.25;25.67;;;-1.70;99.90;;;;;;5072878;28;20040;-65
2023/03/01 07:36:37;;;;;;;34.67;26.42;;;-1.50;99.90;;;;;;5071255;28;20056;-64
2023/03/01 07:39:03;;;;;;;33.78;26.15;;;-1.20;99.90;;;;;;5073648;28;20512;-65
2023/03/01 07:41:29;;;;;;;30.52;24.70;;;-0.90;99.90;;;;;;5071860;28;20241;-65
2023/03/01 07:43:55;;;;;;;35.25;25.98;;;-0.50;99.90;;;;;;5072214;28;20066;-65
2023/03/01 07:46:21;;;;;;;28.50;24.42;;;0.20;99.90;;;;;;5075798;28;20039;-65
2023/03/01 07:48:48;;;;;;;28.10;23.73;;;0.80;99.90;;;;;;5062916;28;20523;-66
2023/03/01 07:51:14;;;;;;;26.45;21.63;;;1.50;99.90;;;;;;5074732;28;20044;-66
2023/03/01 07:53:39;;;;;;;27.05;23.58;;;2.60;99.90;;;;;;5075581;28;20048;-66
2023/03/01 07:56:10;;;;;;;27.65;21.42;;;3.60;99.90;;;;;;5062098;28;20063;-65
2023/03/01 07:58:42;;;;;;;22.98;20.48;;;4.50;99.90;;;;;;5050491;28;20048;-65
2023/03/01 08:01:10;;;;;;;21.60;19.40;;;5.30;99.90;;;;;;5066791;28;20497;-66
2023/03/01 08:03:37;;;;;;;21.17;18.98;;;6.10;99.90;;;;;;5076302;28;20041;-66
2023/03/01 08:06:05;;;;;;;21.73;19.52;;;6.80;99.90;;;;;;5071003;28;20037;-65
2023/03/01 08:08:31;;;;;;;21.80;19.45;;;7.50;99.90;;;;;;5068402;28;20037;-66
2023/03/01 08:10:58;;;;;;;20.88;18.67;;;8.10;99.90;;;;;;5064356;28;20036;-66
2023/03/01 08:13:24;;;;;;;21.10;18.92;;;8.50;99.90;;;;;;5073044;28;20036;-66
2023/03/01 08:15:50;;;;;;;21.02;18.90;;;8.90;99.90;;;;;;5073620;28;20751;-65
2023/03/01 08:18:20;;;;;;;21.55;19.42;;;8.70;99.90;;;;;;5058570;28;20045;-65
2023/03/01 08:20:46;;;;;;;21.90;19.65;;;9.10;99.90;;;;;;5056064;28;20044;-66
2023/03/01 08:23:13;;;;;;;20.85;18.75;;;9.40;99.90;;;;;;5071288;28;20476;-66
2023/03/01 08:25:38;;;;;;;21.77;19.50;;;9.40;99.90;;;;;;5059914;28;20043;-66
2023/03/01 08:28:05;;;;;;;21.23;19.02;;;9.60;99.90;;;;;;5052791;28;20044;-64
2023/03/01 08:30:30;;;;;;;21.98;19.77;;;9.80;99.90;;;;;;5072047;28;20085;-65
2023/03/01 08:32:56;;;;;;;22.95;20.45;;;9.80;99.90;;;;;;5071107;28;20076;-65
2023/03/01 08:35:22;;;;;;;22.80;20.50;;;10.10;99.90;;;;;;5070856;28;20033;-66
2023/03/01 08:37:48;;;;;;;22.77;20.15;;;10.50;99.90;;;;;;5057261;28;20044;-66
2023/03/01 08:40:14;;;;;;;22.25;19.90;;;11.00;99.90;;;;;;5059753;28;20036;-66
2023/03/01 08:42:44;;;;;;;25.08;20.27;;;11.40;99.90;;;;;;5058865;28;20052;-65
2023/03/01 08:45:11;;;;;;;22.83;20.48;;;11.90;99.90;;;;;;5060997;28;20106;-66
2023/03/01 08:47:37;;;;;;;22.00;19.80;;;12.40;99.90;;;;;;5064068;28;20033;-66
2023/03/01 08:50:04;;;;;;;23.00;20.63;;;13.00;99.90;;;;;;5061045;28;20067;-65
2023/03/01 08:52:30;;;;;;;22.52;20.15;;;13.50;99.90;;;;;;5059109;28;20064;-65
2023/03/01 08:54:56;;;;;;;22.67;19.95;;;13.80;99.90;;;;;;5070535;28;20040;-65
2023/03/01 08:57:22;;;;;;;21.98;19.48;;;13.80;99.30;;;;;;5067591;28;20037;-66
2023/03/01 08:59:48;;;;;;;21.55;19.38;;;14.20;98.90;;;;;;5055166;28;20203;-66
2023/03/01 09:02:18;;;;;;;22.40;20.10;;;14.60;97.40;;;;;;5059799;28;20174;-66
2023/03/01 09:04:44;;;;;;;22.10;19.90;;;14.60;95.50;;;;;;5074266;28;20153;-65
2023/03/01 09:07:10;;;;;;;21.58;19.27;;;14.90;95.20;;;;;;5070889;28;20562;-65
2023/03/01 09:09:37;;;;;;;21.67;19.50;;;15.00;94.10;;;;;;5074751;28;20047;-65
2023/03/01 09:12:03;;;;;;;21.05;19.05;;;15.00;94.70;;;;;;5067164;28;20056;-64
2023/03/01 09:14:32;;;;;;;22.25;20.00;;;15.10;93.40;;;;;;5071678;28;20039;-65
2023/03/01 09:16:58;;;;;;;21.55;19.38;;;15.20;93.20;;;;;;5074351;28;20123;-64
2023/03/01 09:19:24;;;;;;;20.75;18.67;;;15.30;92.10;;;;;;5069978;28;20162;-65
2023/03/01 09:21:52;;;;;;;21.08;19.02;;;15.30;91.60;;;;;;5055552;28;20043;-65
2023/03/01 09:24:23;;;;;;;21.17;19.00;;;15.20;91.50;;;;;;5068812;28;20082;-65
2023/03/01 09:26:49;;;;;;;20.05;17.95;;;15.60;90.80;;;;;;5070282;28;20435;-65
2023/03/01 09:29:16;;;;;;;20.65;18.50;;;15.90;90.40;;;;;;5066449;28;20131;-64
2023/03/01 09:31:42;;;;;;;19.23;17.27;;;16.00;89.20;;;;;;5066376;28;20044;-65
2023/03/01 09:34:09;;;;;;;18.08;16.30;;;15.50;87.90;;;;;;5053481;28;20048;-65
2023/03/01 09:36:35;;;;;;;19.05;17.15;;;15.80;88.50;;;;;;5069306;28;20043;-65
2023/03/01 09:39:02;;;;;;;17.08;15.27;;;16.20;87.20;;;;;;5068531;28;20056;-65
2023/03/01 09:41:30;;;;;;;16.80;15.20;;;15.80;84.80;;;;;;5059840;28;20045;-65
2023/03/01 09:44:04;;;;;;;17.70;15.27;;;15.90;82.30;;;;;;5061557;28;20041;-65
2023/03/01 09:46:37;;;;;;;16.30;14.60;;;16.10;84.40;;;;;;5061237;28;20517;-65
2023/03/01 09:49:11;;;;;;;16.33;14.77;;;16.30;83.40;;;;;;5063419;28;20523;-65
2023/03/01 09:51:37;;;;;;;;;;;16.70;83.50;;;;;;5062312;28;20096;-65
2023/03/01 09:54:05;;;;;;;13.68;12.38;;;17.00;74.60;;;;;;5063871;28;19979;-66
2023/03/01 09:57:01;;;;;;;12.45;11.27;;;16.90;80.10;;;;;;5064319;28;20055;-66
2023/03/01 09:59:33;;;;;;;11.02;10.02;;;17.10;74.50;;;;;;5065921;28;20498;-66
2023/03/01 10:02:11;;;;;;;15.73;11.90;;;17.00;75.10;;;;;;5062324;28;20119;-66
2023/03/01 10:04:52;;;;;;;10.65;9.50;;;17.30;74.50;;;;;;5059106;28;20629;-65
2023/03/01 10:07:57;;;;;;;9.55;8.50;;;17.60;70.00;;;;;;5067204;28;20040;-66
2023/03/01 10:10:33;;;;;;;10.23;9.13;;;17.30;64.60;;;;;;5065355;28;20388;-66
2023/03/01 10:13:08;;;;;;;9.98;8.77;;;17.30;68.30;;;;;;5068330;28;20175;-66
2023/03/01 10:15:43;;;;;;;9.30;7.28;;;17.20;68.70;;;;;;5066394;28;20102;-66
2023/03/01 10:18:32;;;;;;;8.35;6.75;;;17.40;65.50;;;;;;5064988;28;20511;-67
2023/03/01 10:21:09;;;;;;;7.43;6.07;;;17.40;61.60;;;;;;5070241;28;20089;-66
2023/03/01 10:23:36;;;;;;;6.50;5.82;;;17.30;64.80;;;;;;5066619;28;20135;-66
2023/03/01 10:26:41;;;;;;;9.38;7.63;;;17.80;63.70;;;;;;5065587;28;20143;-67
2023/03/01 10:29:11;;;;;;;7.43;6.57;;;18.00;58.50;;;;;;5052229;28;20052;-67
2023/03/01 10:31:48;;;;;;;7.72;5.95;;;17.20;59.60;;;;;;5063784;28;20059;-66
2023/03/01 10:34:18;;;;;;;7.50;6.28;;;16.80;59.20;;;;;;5063509;28;20037;-66
2023/03/01 10:36:50;;;;;;;10.18;9.07;;;16.60;60.50;;;;;;5068013;28;20315;-66
2023/03/01 10:39:20;;;;;;;10.93;9.38;;;16.30;60.80;;;;;;5065383;28;20032;-65
2023/03/01 10:41:56;;;;;;;10.82;9.73;;;16.60;62.40;;;;;;5070903;28;20097;-66
2023/03/01 10:44:39;;;;;;;10.60;9.13;;;16.70;60.80;;;;;;5065531;28;20116;-66
2023/03/01 10:47:16;;;;;;;10.18;9.18;;;16.30;58.90;;;;;;5072999;28;20442;-66
2023/03/01 10:50:03;;;;;;;9.10;8.18;;;15.90;61.50;;;;;;5052892;28;20086;-66
2023/03/01 10:52:35;;;;;;;10.13;8.73;;;15.90;62.30;;;;;;5069368;28;20053;-66
2023/03/01 10:55:25;;;;;;;10.25;8.90;;;15.80;61.00;;;;;;5069917;28;20036;-66
2023/03/01 10:58:08;;;;;;;11.20;8.85;;;15.60;59.50;;;;;;5073434;28;20333;-66
2023/03/01 11:00:46;;;;;;;9.52;8.52;;;15.60;60.10;;;;;;5069961;28;20060;-66
2023/03/01 11:03:16;;;;;;;9.88;8.98;;;15.70;61.50;;;;;;5070497;28;20481;-67
2023/03/01 11:06:01;;;;;;;7.18;6.40;;;15.70;62.00;;;;;;5072122;28;20044;-66
2023/03/01 11:08:36;;;;;;;6.10;5.50;;;15.90;59.60;;;;;;5053119;28;20036;-67
2023/03/01 11:11:14;;;;;;;8.05;5.50;;;15.40;56.50;;;;;;5067995;28;20440;-66
2023/03/01 11:13:54;;;;;;;7.13;5.93;;;15.30;58.40;;;;;;5072615;28;20141;-68
2023/03/01 11:16:31;;;;;;;6.32;5.38;;;15.20;55.60;;;;;;5049668;28;20029;-66
2023/03/01 11:19:14;;;;;;;6.60;5.90;;;15.00;57.30;;;;;;5064523;28;20044;-67
2023/03/01 11:21:47;;;;;;;7.07;6.38;;;14.90;58.60;;;;;;5056284;28;20047;-66
2023/03/01 11:24:15;;;;;;;7.68;6.13;;;14.90;57.90;;;;;;5048842;28;20124;-67
2023/03/01 11:26:45;;;;;;;7.20;5.85;;;15.00;57.90;;;;;;5059739;28;20099;-66
2023/03/01 11:29:42;;;;;;;7.18;6.18;;;14.80;56.60;;;;;;5064182;28;20069;-66
2023/03/01 11:32:13;;;;;;;6.82;5.18;;;15.10;57.80;;;;;;5042726;28;20128;-65
2023/03/01 11:34:51;;;;;;;5.65;5.05;;;15.30;57.50;;;;;;5066461;28;20569;-66
2023/03/01 11:37:33;;;;;;;6.22;5.60;;;15.20;56.50;;;;;;5045852;28;20380;-67
2023/03/01 11:40:18;;;;;;;5.78;5.22;;;15.00;56.20;;;;;;5062060;28;20068;-66
2023/03/01 11:42:55;;;;;;;8.18;4.95;;;14.70;56.60;;;;;;5035928;28;20178;-68
2023/03/01 11:45:25;;;;;;;5.63;5.13;;;14.40;57.10;;;;;;5062414;28;20851;-67
2023/03/01 11:47:59;;;;;;;6.28;5.25;;;14.50;57.50;;;;;;5067764;28;20063;-66
2023/03/01 11:50:34;;;;;;;7.32;5.57;;;14.60;56.50;;;;;;5050624;28;20044;-67
2023/03/01 11:53:09;;;;;;;6.97;5.10;;;14.80;56.90;;;;;;5084009;28;20067;-67
2023/03/01 11:55:44;;;;;;;6.72;6.03;;;15.00;55.60;;;;;;5080966;28;20440;-66
2023/03/01 11:58:09;;;;;;;;;;;14.70;56.00;;;;;;5086619;28;20501;-69
2023/03/01 12:01:12;;;;;;;6.32;4.68;;;14.30;55.20;;;;;;5086158;28;19966;-68
2023/03/01 12:03:57;;;;;;;5.72;5.13;;;14.10;55.50;;;;;;5076873;28;20048;-68
2023/03/01 12:06:34;;;;;;;6.82;5.95;;;13.90;56.40;;;;;;5083740;28;20176;-68
2023/03/01 12:09:34;;;;;;;6.80;5.30;;;13.80;56.80;;;;;;5081149;28;20041;-69
2023/03/01 12:12:28;;;;;;;6.18;5.57;;;13.80;57.50;;;;;;5073563;28;20044;-67
2023/03/01 12:15:02;;;;;;;8.20;5.57;;;13.70;57.80;;;;;;5070807;28;20264;-68
2023/03/01 12:17:34;;;;;;;9.05;7.15;;;13.90;58.80;;;;;;5076957;28;20054;-69
2023/03/01 12:20:53;;;;;;;8.35;7.55;;;14.00;58.10;;;;;;5072983;28;20039;-68
2023/03/01 12:23:41;;;;;;;8.15;7.35;;;13.90;58.00;;;;;;5025108;28;20037;-67
2023/03/01 12:26:27;;;;;;;8.15;7.32;;;13.50;58.00;;;;;;5071731;28;20336;-67
2023/03/01 12:29:22;;;;;;;9.50;7.80;;;13.30;59.10;;;;;;5090967;28;20048;-66
2023/03/01 12:32:00;;;;;;;9.15;8.20;;;13.10;59.30;;;;;;5071805;28;20515;-66
2023/03/01 12:34:49;;;;;;;9.55;8.55;;;13.40;60.70;;;;;;5085946;28;20427;-67
2023/03/01 12:37:24;;;;;;;8.80;7.70;;;13.60;59.10;;;;;;5063697;28;20104;-68
2023/03/01 12:40:16;;;;;;;10.02;8.20;;;13.70;59.20;;;;;;5068354;28;20404;-66
2023/03/01 12:42:42;;;;;;;10.15;8.55;;;13.70;60.00;;;;;;5083390;28;20484;-66
2023/03/01 12:45:45;;;;;;;11.20;8.25;;;13.70;59.60;;;;;;5083737;28;20063;-66
2023/03/01 12:48:29;;;;;;;10.00;9.00;;;14.00;59.20;;;;;;5078794;28;20071;-67
2023/03/01 12:51:00;;;;;;;10.98;8.77;;;13.70;60.00;;;;;;5083716;28;20082;-66